Accueil
METAR-TAF:

METAR-TAF

Aéroports :

Tsushima, Japon

latitude: 34-17N, longitude: 129-20E, altitude: 63 m

Observation

Le bulletin a été fait il y a 47 minutes, à 06:00 UTC
Vent 5 kt de sud-est
Température 31°C
Humidité 75%
Pression 1007 hPa
Visibilité 10 km ou plus
Quelques nuages à une hauteur de 2000 ft
Nuages épars

METAR: RJDT 250600Z 13005KT 9999 FEW020 SCT/// 31/26 Q1007

Heure: 15:47 (06:47 UTC)


TAF: absent

Observations et prévisions météorologiques de plus de 4000 aéroports (messages METAR et TAF).

Les stations disponibles sont représentées par des disques jaunes et rouges sur la carte.

Passer la souris dessus pour voir le nom de la station.

Cliquer dessus pour voir les observations et prévisions météorologiques.

Pour changer de carte: cliquez sur les boutons verts avec une croix noire pour zoomer, sur le bouton vert avec un tiret pour effectuer un zoom arrière, ou sur les flèches vertes pour les cartes adjacentes.


METAR-TAF: